Time;durP1;ratioP1;P1;durP2;ratioP2;P2;SDS_P1;SDS_P2;PMS_P1;PMS_P2;Temp;Humidity;BMP_temperature;BMP_pressure;BME280_temperature;BME280_humidity;BME280_pressure;Samples;Min_cycle;Max_cycle;Signal;HPM_P1;HPM_P2
2022/06/14 00:00:55;;;;;;;5.57;2.40;;;15.00;93.30;;;;;;6187541;28;20056;-84
2022/06/14 00:03:57;;;;;;;7.55;2.78;;;15.00;93.50;;;;;;6185442;28;20051;-82
2022/06/14 00:06:59;;;;;;;6.82;2.35;;;14.80;93.50;;;;;;6185620;28;20186;-82
2022/06/14 00:10:01;;;;;;;4.88;2.75;;;14.80;93.70;;;;;;6185013;28;20081;-82
2022/06/14 00:13:04;;;;;;;4.55;2.47;;;14.70;93.90;;;;;;6184440;28;20641;-82
2022/06/14 00:16:08;;;;;;;4.88;2.28;;;14.70;93.90;;;;;;6184865;28;20420;-82
2022/06/14 00:19:10;;;;;;;5.95;2.25;;;14.70;94.10;;;;;;6182270;28;20054;-82
2022/06/14 00:22:12;;;;;;;6.47;2.75;;;14.60;94.10;;;;;;6185067;28;20051;-83
2022/06/14 00:25:24;;;;;;;3.42;2.17;;;14.60;94.20;;;;;;6184584;28;20571;-83
2022/06/14 00:28:29;;;;;;;3.88;2.28;;;14.50;94.30;;;;;;6184420;28;20050;-82
2022/06/14 00:31:32;;;;;;;6.45;2.75;;;14.40;94.50;;;;;;6185026;28;20051;-82
2022/06/14 00:34:34;;;;;;;4.88;2.50;;;14.30;94.50;;;;;;6183819;28;20057;-82
2022/06/14 00:37:36;;;;;;;6.65;2.83;;;14.20;94.80;;;;;;6184709;28;20154;-81
2022/06/14 00:40:39;;;;;;;8.77;3.13;;;14.10;94.70;;;;;;6185043;28;20054;-82
2022/06/14 00:43:41;;;;;;;4.90;2.80;;;14.10;94.90;;;;;;6184824;28;20047;-83
2022/06/14 00:46:54;;;;;;;8.40;4.15;;;14.00;95.00;;;;;;6183086;28;20053;-82
2022/06/14 00:49:59;;;;;;;5.43;2.25;;;14.00;95.10;;;;;;6183294;28;20054;-82
2022/06/14 00:53:06;;;;;;;6.57;2.40;;;14.00;95.00;;;;;;6183589;28;20062;-81
2022/06/14 00:56:14;;;;;;;6.43;3.08;;;14.00;95.10;;;;;;6184423;28;20047;-83
2022/06/14 00:59:21;;;;;;;3.95;2.22;;;14.00;95.20;;;;;;6184097;28;20050;-83
2022/06/14 01:02:27;;;;;;;5.18;2.40;;;14.00;95.20;;;;;;6182570;28;20046;-83
2022/06/14 01:06:05;;;;;;;6.32;2.75;;;13.90;95.20;;;;;;6181464;28;20047;-82
2022/06/14 01:09:04;;;;;;;7.93;3.00;;;13.80;95.30;;;;;;6182514;28;20105;-83
2022/06/14 01:12:10;;;;;;;10.02;2.85;;;13.80;95.40;;;;;;6181677;28;20463;-82
2022/06/14 01:15:18;;;;;;;6.90;2.63;;;13.80;95.50;;;;;;6182525;28;20141;-82
2022/06/14 01:18:23;;;;;;;9.57;3.90;;;13.70;95.40;;;;;;6182189;28;20568;-82
2022/06/14 01:21:25;;;;;;;9.13;3.25;;;13.70;95.50;;;;;;6183515;28;20055;-83
2022/06/14 01:24:28;;;;;;;5.90;2.50;;;13.60;95.70;;;;;;6185378;28;20062;-82
2022/06/14 01:27:32;;;;;;;6.38;2.47;;;13.60;95.90;;;;;;6185551;28;20057;-83
2022/06/14 01:30:37;;;;;;;6.25;2.80;;;13.60;95.90;;;;;;6184882;28;20057;-83
2022/06/14 01:33:43;;;;;;;6.13;2.80;;;13.50;96.00;;;;;;6184307;28;20045;-83
2022/06/14 01:36:45;;;;;;;6.95;2.30;;;13.40;96.10;;;;;;6184052;28;20054;-82
2022/06/14 01:39:48;;;;;;;5.63;2.85;;;13.40;96.10;;;;;;6181773;28;20462;-83
2022/06/14 01:43:25;;;;;;;6.03;2.95;;;13.40;96.20;;;;;;6184687;28;20516;-82
2022/06/14 01:46:28;;;;;;;4.57;3.05;;;13.30;96.20;;;;;;6174952;28;20049;-83
2022/06/14 01:53:11;;;;;;;4.22;2.55;;;13.20;96.30;;;;;;6161654;28;20051;-82
2022/06/14 01:56:20;;;;;;;5.88;2.63;;;13.20;96.20;;;;;;6161492;28;20043;-82
2022/06/14 01:59:26;;;;;;;;;;;13.20;96.30;;;;;;6160686;29;20058;-82
2022/06/14 02:02:32;;;;;;;5.72;2.85;;;13.10;96.50;;;;;;6159945;28;20318;-82
2022/06/14 02:05:33;;;;;;;5.80;2.65;;;13.10;96.40;;;;;;6160119;28;20425;-83
2022/06/14 02:08:43;;;;;;;5.20;3.15;;;13.00;96.40;;;;;;6158126;28;20046;-82
2022/06/14 02:11:46;;;;;;;5.05;3.03;;;12.90;96.90;;;;;;6159208;28;20055;-83
2022/06/14 02:14:51;;;;;;;10.63;2.65;;;12.90;96.80;;;;;;6158677;28;20061;-83
2022/06/14 02:18:01;;;;;;;7.28;2.75;;;12.80;96.80;;;;;;6158284;28;20053;-83
2022/06/14 02:21:09;;;;;;;7.28;3.28;;;12.80;97.00;;;;;;6155285;28;20282;-82
2022/06/14 02:24:13;;;;;;;4.27;2.20;;;12.80;97.10;;;;;;6153233;28;20049;-82
2022/06/14 02:27:23;;;;;;;5.15;2.33;;;12.70;97.20;;;;;;6154215;28;20051;-82
2022/06/14 02:30:29;;;;;;;12.98;3.33;;;12.70;97.20;;;;;;6152559;28;20047;-83
2022/06/14 02:33:36;;;;;;;7.53;3.28;;;12.60;97.20;;;;;;6152572;28;20539;-82
2022/06/14 02:36:41;;;;;;;4.28;2.58;;;12.60;97.20;;;;;;6153111;28;20055;-82
2022/06/14 02:39:49;;;;;;;5.82;2.53;;;12.60;97.00;;;;;;6153127;28;20055;-81
2022/06/14 02:42:56;;;;;;;6.55;3.10;;;12.60;97.30;;;;;;6153233;28;20408;-81
2022/06/14 02:46:03;;;;;;;5.07;2.90;;;12.50;97.30;;;;;;6152125;28;20063;-81
2022/06/14 02:49:14;;;;;;;5.15;2.83;;;12.50;97.30;;;;;;6151900;28;20047;-82
2022/06/14 02:52:30;;;;;;;7.53;2.95;;;12.50;97.30;;;;;;6151241;28;20109;-81
2022/06/14 02:55:37;;;;;;;4.70;3.05;;;12.40;97.10;;;;;;6152337;28;20053;-82
2022/06/14 02:58:46;;;;;;;7.88;3.30;;;12.30;97.30;;;;;;6151921;28;20051;-81
2022/06/14 03:01:52;;;;;;;9.48;3.72;;;12.30;97.60;;;;;;6151543;28;20054;-81
2022/06/14 03:05:00;;;;;;;7.65;3.08;;;12.40;97.60;;;;;;6151668;28;20055;-82
2022/06/14 03:08:09;;;;;;;8.90;2.87;;;12.40;97.60;;;;;;6151596;28;20051;-82
2022/06/14 03:11:26;;;;;;;11.07;3.33;;;12.40;97.50;;;;;;6151430;28;20135;-82
2022/06/14 03:14:39;;;;;;;6.63;3.38;;;12.40;97.50;;;;;;6150916;28;20047;-82
2022/06/14 03:17:49;;;;;;;7.72;3.17;;;12.40;97.50;;;;;;6151100;28;20413;-82
2022/06/14 03:20:57;;;;;;;14.75;4.40;;;12.40;97.50;;;;;;6151276;28;20150;-82
2022/06/14 03:24:08;;;;;;;7.95;3.17;;;12.30;97.60;;;;;;6151113;28;20043;-82
2022/06/14 03:27:15;;;;;;;4.45;3.33;;;12.30;97.60;;;;;;6152542;28;20059;-82
2022/06/14 03:30:21;;;;;;;8.27;2.85;;;12.30;97.70;;;;;;6150292;28;20053;-83
2022/06/14 03:33:30;;;;;;;9.32;3.80;;;12.30;97.90;;;;;;6152637;28;20045;-82
2022/06/14 03:36:33;;;;;;;6.55;3.53;;;12.30;98.00;;;;;;6153081;28;20069;-82
2022/06/14 03:39:38;;;;;;;7.03;3.20;;;12.40;98.00;;;;;;6152793;28;20047;-83
2022/06/14 03:42:41;;;;;;;6.82;3.08;;;12.40;97.80;;;;;;6153329;28;20055;-83
2022/06/14 03:45:52;;;;;;;5.63;2.83;;;12.40;97.70;;;;;;6152986;28;20047;-83
2022/06/14 03:48:57;;;;;;;6.95;2.67;;;12.40;97.70;;;;;;6152706;28;20413;-82
2022/06/14 03:52:03;;;;;;;10.40;2.97;;;12.50;97.80;;;;;;6153405;28;20063;-82
2022/06/14 03:55:19;;;;;;;7.80;4.57;;;12.60;97.60;;;;;;6152061;28;20047;-83
2022/06/14 03:58:36;;;;;;;5.63;2.90;;;12.80;97.60;;;;;;6152858;28;20086;-83
2022/06/14 04:01:46;;;;;;;3.65;2.25;;;12.80;97.20;;;;;;6152138;28;20091;-83
2022/06/14 04:04:56;;;;;;;3.60;2.40;;;13.00;96.90;;;;;;6176771;23;20058;-82
2022/06/14 04:08:08;;;;;;;7.43;2.17;;;13.00;96.70;;;;;;6175572;28;20063;-82
2022/06/14 04:11:19;;;;;;;6.05;2.88;;;13.10;96.80;;;;;;6179270;28;20066;-82
2022/06/14 04:14:45;;;;;;;6.20;2.78;;;13.30;96.80;;;;;;6178254;28;20065;-82
2022/06/14 04:17:56;;;;;;;4.63;2.42;;;14.10;96.20;;;;;;6178567;28;20054;-82
2022/06/14 04:21:03;;;;;;;4.20;2.38;;;15.50;93.90;;;;;;6178968;28;20054;-82
2022/06/14 04:24:12;;;;;;;6.75;2.53;;;16.20;92.40;;;;;;6178091;28;20047;-82
2022/06/14 04:27:19;;;;;;;4.97;2.80;;;16.30;92.00;;;;;;6179918;28;20054;-81
2022/06/14 04:30:29;;;;;;;8.82;3.13;;;16.50;91.60;;;;;;6178071;28;20051;-82
2022/06/14 04:33:36;;;;;;;3.25;1.95;;;16.70;91.30;;;;;;6178376;28;20051;-80
2022/06/14 04:36:44;;;;;;;4.38;2.53;;;17.20;90.80;;;;;;6178524;28;20061;-81
2022/06/14 04:39:51;;;;;;;4.10;2.35;;;18.90;87.30;;;;;;6178069;28;20417;-81
2022/06/14 04:42:59;;;;;;;3.73;1.93;;;20.80;81.10;;;;;;6178799;28;20046;-82
2022/06/14 04:46:06;;;;;;;6.00;2.10;;;22.50;75.20;;;;;;6178012;28;20420;-82
2022/06/14 04:49:16;;;;;;;3.87;3.10;;;23.90;69.80;;;;;;6177947;28;20057;-82
2022/06/14 04:52:23;;;;;;;4.93;2.10;;;25.30;64.30;;;;;;6178164;28;20677;-82
2022/06/14 04:55:28;;;;;;;4.25;1.90;;;26.30;59.60;;;;;;6179045;28;20057;-82
2022/06/14 04:58:38;;;;;;;8.40;4.10;;;27.20;56.00;;;;;;6178117;28;20066;-82
2022/06/14 05:01:46;;;;;;;6.03;3.03;;;28.00;52.60;;;;;;6178543;28;20051;-82
2022/06/14 05:04:54;;;;;;;3.20;2.50;;;28.80;50.30;;;;;;6177909;28;20051;-83
2022/06/14 05:08:03;;;;;;;4.32;2.00;;;29.40;48.10;;;;;;6177588;28;20047;-82
2022/06/14 05:11:10;;;;;;;5.60;1.90;;;30.00;46.40;;;;;;6178535;28;20055;-82
2022/06/14 05:14:18;;;;;;;6.53;2.28;;;30.60;44.80;;;;;;6177536;28;20042;-83
2022/06/14 05:17:28;;;;;;;3.60;1.58;;;31.30;43.20;;;;;;6177357;28;20050;-83
2022/06/14 05:20:38;;;;;;;4.57;1.70;;;32.10;41.60;;;;;;6177381;28;20050;-83
2022/06/14 05:23:44;;;;;;;11.73;1.83;;;32.80;39.90;;;;;;6178628;28;20507;-83
2022/06/14 05:27:06;;;;;;;5.32;2.33;;;33.50;37.90;;;;;;6177825;28;20065;-83
2022/06/14 05:30:14;;;;;;;6.20;1.65;;;33.80;36.70;;;;;;6177290;28;20099;-83
2022/06/14 05:33:28;;;;;;;6.38;1.63;;;33.80;35.50;;;;;;6178101;28;20043;-83
2022/06/14 05:36:36;;;;;;;3.10;2.10;;;33.80;35.50;;;;;;6178545;28;20070;-83
2022/06/14 05:39:45;;;;;;;4.90;1.25;;;34.40;34.70;;;;;;6196330;28;20053;-83
2022/06/14 05:42:51;;;;;;;6.50;2.22;;;35.20;33.70;;;;;;6178601;28;20047;-83
2022/06/14 05:45:59;;;;;;;4.15;1.50;;;36.10;32.30;;;;;;6176089;28;20135;-83
2022/06/14 05:49:05;;;;;;;2.88;1.40;;;37.30;31.30;;;;;;6176040;28;20042;-81
2022/06/14 05:52:15;;;;;;;7.43;1.73;;;38.30;30.20;;;;;;6175782;28;20043;-83
2022/06/14 05:55:21;;;;;;;6.00;1.40;;;39.00;29.50;;;;;;6176105;28;20058;-80
2022/06/14 05:58:27;;;;;;;6.45;1.55;;;39.60;29.00;;;;;;6175291;28;20046;-83
2022/06/14 06:01:33;;;;;;;7.03;2.72;;;40.20;28.50;;;;;;6175553;28;20054;-80
2022/06/14 06:04:41;;;;;;;2.03;1.40;;;40.10;28.10;;;;;;6175757;28;20043;-82
2022/06/14 06:07:50;;;;;;;8.23;2.15;;;40.20;27.90;;;;;;6176125;28;20042;-82
2022/06/14 06:10:56;;;;;;;6.85;1.67;;;40.50;28.10;;;;;;6176672;28;20055;-80
2022/06/14 06:14:06;;;;;;;13.25;1.67;;;41.10;27.70;;;;;;6175568;28;20047;-82
2022/06/14 06:17:12;;;;;;;2.88;1.13;;;41.50;27.40;;;;;;6175213;28;20050;-81
2022/06/14 06:20:25;;;;;;;5.28;1.83;;;42.10;27.10;;;;;;6175904;28;20201;-80
2022/06/14 06:23:33;;;;;;;6.63;1.83;;;42.00;26.70;;;;;;6175812;28;20057;-81
2022/06/14 06:26:38;;;;;;;3.50;1.67;;;41.60;27.00;;;;;;6175205;28;20501;-80
2022/06/14 06:29:48;;;;;;;6.47;2.00;;;41.50;26.60;;;;;;6174886;28;20058;-81
2022/06/14 06:32:51;;;;;;;9.30;1.70;;;40.50;26.70;;;;;;6174982;28;20190;-82
2022/06/14 06:36:13;;;;;;;9.98;1.40;;;40.20;26.70;;;;;;6175390;28;20049;-83
2022/06/14 06:39:30;;;;;;;5.18;1.42;;;39.00;27.40;;;;;;6174908;28;20389;-81
2022/06/14 06:42:39;;;;;;;3.78;1.33;;;38.80;27.80;;;;;;6175807;28;20047;-80
2022/06/14 06:45:45;;;;;;;10.07;1.95;;;39.00;28.20;;;;;;6175834;28;20058;-81
2022/06/14 06:48:56;;;;;;;4.73;1.33;;;39.30;27.40;;;;;;6175208;28;20046;-81
2022/06/14 06:52:02;;;;;;;5.20;1.80;;;38.40;27.70;;;;;;6174753;28;20310;-82
2022/06/14 06:55:10;;;;;;;5.40;1.27;;;37.80;28.10;;;;;;6176175;28;20050;-83
2022/06/14 06:58:23;;;;;;;7.78;2.55;;;37.40;28.20;;;;;;6174313;28;20054;-84
2022/06/14 07:01:30;;;;;;;6.68;1.67;;;36.90;28.60;;;;;;6174499;28;20420;-82
2022/06/14 07:07:58;;;;;;;4.50;1.27;;;37.30;28.70;;;;;;6174728;28;20013;-82
2022/06/14 07:11:04;;;;;;;6.75;1.30;;;38.60;28.40;;;;;;6174977;28;20628;-82
2022/06/14 07:14:12;;;;;;;5.82;1.35;;;38.80;27.00;;;;;;6168895;28;20031;-84
2022/06/14 07:17:17;;;;;;;;;;;38.00;27.40;;;;;;6161611;28;20129;-81
2022/06/14 07:20:29;;;;;;;5.00;1.70;;;35.30;29.00;;;;;;6157848;28;19957;-84
2022/06/14 07:23:40;;;;;;;5.20;1.52;;;32.40;31.40;;;;;;6174129;28;20046;-83
2022/06/14 07:26:48;;;;;;;7.32;1.48;;;30.20;34.50;;;;;;6178311;28;20053;-84
2022/06/14 07:29:58;;;;;;;6.43;1.38;;;29.10;36.70;;;;;;6177472;28;20051;-84
2022/06/14 07:33:02;;;;;;;5.18;1.25;;;28.30;37.50;;;;;;6178266;28;20051;-84
2022/06/14 07:36:14;;;;;;;6.28;2.05;;;27.40;39.10;;;;;;6177445;28;20121;-83
2022/06/14 07:39:21;;;;;;;2.67;1.23;;;27.00;40.10;;;;;;6177816;28;20051;-82
2022/06/14 07:42:31;;;;;;;8.77;1.52;;;26.50;40.80;;;;;;6176317;28;20051;-85
2022/06/14 07:45:37;;;;;;;6.00;2.10;;;26.20;41.80;;;;;;6169750;28;20053;-84
2022/06/14 07:48:46;;;;;;;6.07;1.85;;;26.00;42.00;;;;;;6179838;28;20055;-86
2022/06/14 07:51:53;;;;;;;7.00;1.52;;;25.40;43.20;;;;;;6181420;28;20051;-85
2022/06/14 07:55:33;;;;;;;7.13;1.33;;;25.40;44.20;;;;;;6181391;28;20047;-85
2022/06/14 07:58:41;;;;;;;4.45;1.65;;;25.50;43.00;;;;;;6179464;28;20059;-84
2022/06/14 08:01:50;;;;;;;3.17;1.33;;;25.50;42.90;;;;;;6181741;28;20428;-83
2022/06/14 08:04:56;;;;;;;8.43;1.83;;;25.50;44.00;;;;;;6167527;28;20043;-86
2022/06/14 08:08:03;;;;;;;5.88;1.35;;;25.60;43.80;;;;;;6179955;28;20409;-83
2022/06/14 08:11:09;;;;;;;6.03;1.75;;;25.40;43.20;;;;;;6178498;28;20043;-85
2022/06/14 08:14:18;;;;;;;3.50;1.60;;;25.30;44.10;;;;;;6165540;28;20043;-84
2022/06/14 08:17:26;;;;;;;6.10;1.30;;;25.20;44.40;;;;;;6174884;28;20046;-82
2022/06/14 08:20:36;;;;;;;10.98;3.05;;;25.40;45.10;;;;;;6182711;28;20042;-86
2022/06/14 08:23:45;;;;;;;4.88;1.63;;;25.70;44.40;;;;;;6181057;28;20046;-86
2022/06/14 08:26:51;;;;;;;5.13;1.63;;;25.60;44.30;;;;;;6181503;28;20047;-81
2022/06/14 08:30:00;;;;;;;4.13;1.30;;;25.50;44.90;;;;;;6181149;28;20543;-83
2022/06/14 08:33:06;;;;;;;7.43;1.90;;;25.40;45.10;;;;;;6181214;28;20047;-82
2022/06/14 08:36:10;;;;;;;6.50;1.80;;;25.40;44.80;;;;;;6182064;28;20046;-83
2022/06/14 08:39:18;;;;;;;9.65;1.63;;;25.60;45.00;;;;;;6181562;28;20489;-83
2022/06/14 08:42:31;;;;;;;3.40;1.42;;;25.70;45.40;;;;;;6180375;28;20054;-84
2022/06/14 08:45:39;;;;;;;5.47;1.50;;;26.10;45.10;;;;;;6169496;28;20047;-85
2022/06/14 08:48:44;;;;;;;7.25;1.98;;;26.40;44.90;;;;;;6179618;28;20054;-84
2022/06/14 08:52:15;;;;;;;5.28;1.40;;;26.50;44.40;;;;;;6180364;28;20051;-83
2022/06/14 08:55:37;;;;;;;4.82;1.52;;;26.40;43.80;;;;;;6181676;28;20181;-83
2022/06/14 08:59:06;;;;;;;4.28;2.33;;;26.60;43.90;;;;;;6181855;28;20057;-84
2022/06/14 09:06:47;;;;;;;3.13;1.48;;;27.10;43.10;;;;;;6142214;28;20055;-85
2022/06/14 09:10:10;;;;;;;4.10;1.07;;;27.30;42.90;;;;;;6154978;28;20065;-84
2022/06/14 09:13:33;;;;;;;3.17;1.38;;;27.20;42.00;;;;;;6177774;28;20137;-83
2022/06/14 09:17:07;;;;;;;3.55;1.20;;;27.40;42.60;;;;;;6176416;28;20448;-84
2022/06/14 09:20:21;;;;;;;4.57;1.40;;;27.50;41.80;;;;;;6172620;28;20053;-84
2022/06/14 09:23:37;;;;;;;6.65;1.58;;;27.60;42.60;;;;;;6191130;28;20035;-84
2022/06/14 09:27:00;;;;;;;7.05;1.40;;;27.90;41.00;;;;;;6187518;28;20138;-82
2022/06/14 09:30:21;;;;;;;12.30;1.80;;;27.90;41.60;;;;;;6192656;28;20114;-82
2022/06/14 09:33:48;;;;;;;4.70;1.38;;;28.10;41.60;;;;;;6181193;28;20113;-83
2022/06/14 09:37:25;;;;;;;10.32;1.73;;;28.30;41.20;;;;;;6178207;28;20065;-85
2022/06/14 09:41:02;;;;;;;7.07;1.60;;;28.60;40.20;;;;;;6178769;28;20051;-83
2022/06/14 09:44:41;;;;;;;6.22;1.50;;;28.70;39.50;;;;;;6145765;28;20138;-84
2022/06/14 09:48:28;;;;;;;5.60;1.60;;;28.60;39.30;;;;;;6157689;28;20058;-83
2022/06/14 09:52:23;;;;;;;6.78;2.40;;;28.50;40.00;;;;;;6129664;28;20062;-84
2022/06/14 09:55:46;;;;;;;4.07;1.70;;;28.20;39.30;;;;;;6178174;28;20050;-84
2022/06/14 09:59:27;;;;;;;4.47;1.42;;;28.10;39.60;;;;;;6178829;28;20053;-83
2022/06/14 10:02:43;;;;;;;5.50;1.27;;;28.40;40.00;;;;;;6156151;28;20051;-84
2022/06/14 10:06:11;;;;;;;5.88;1.25;;;28.40;39.20;;;;;;6153889;28;20046;-85
2022/06/14 10:09:25;;;;;;;6.47;1.80;;;28.30;40.10;;;;;;6129673;28;20051;-85
2022/06/14 10:12:57;;;;;;;7.53;1.70;;;29.20;39.20;;;;;;6154271;28;20069;-86
2022/06/14 10:16:06;;;;;;;4.65;1.27;;;30.40;38.30;;;;;;6177966;28;20053;-82
2022/06/14 10:19:36;;;;;;;3.90;1.80;;;30.80;36.50;;;;;;6177285;28;20445;-85
2022/06/14 10:22:51;;;;;;;5.80;1.60;;;30.80;36.10;;;;;;6171108;28;20061;-82
2022/06/14 10:29:35;;;;;;;5.18;1.42;;;29.30;37.30;;;;;;6174448;28;20047;-85
2022/06/14 10:33:06;;;;;;;7.82;1.73;;;28.90;38.80;;;;;;6174302;28;20053;-84
2022/06/14 10:36:48;;;;;;;4.82;1.15;;;29.00;38.50;;;;;;6178817;28;20039;-82
2022/06/14 10:40:19;;;;;;;3.92;0.95;;;29.30;37.90;;;;;;6176248;28;20063;-83
2022/06/14 10:43:31;;;;;;;3.28;1.45;;;29.30;36.70;;;;;;6160288;28;20058;-85
2022/06/14 10:46:43;;;;;;;7.28;1.55;;;29.40;38.20;;;;;;6174067;28;20046;-84
2022/06/14 10:50:11;;;;;;;4.13;1.30;;;29.70;37.40;;;;;;6174569;28;20050;-83
2022/06/14 10:53:22;;;;;;;6.75;1.85;;;30.10;37.30;;;;;;6175275;28;20057;-82
2022/06/14 10:56:56;;;;;;;3.42;1.33;;;30.40;36.70;;;;;;6175476;28;20532;-82
2022/06/14 11:00:15;;;;;;;2.83;1.17;;;30.40;35.80;;;;;;6175007;28;20055;-83
2022/06/14 11:03:32;;;;;;;2.70;0.90;;;30.40;35.70;;;;;;6177297;28;20050;-84
2022/06/14 11:07:01;;;;;;;7.78;1.50;;;30.00;36.20;;;;;;6164541;28;20043;-82
2022/06/14 11:10:23;;;;;;;5.90;1.15;;;29.90;35.90;;;;;;6150927;28;20053;-83
2022/06/14 11:13:35;;;;;;;8.95;1.33;;;29.80;36.10;;;;;;6154690;28;20058;-83
2022/06/14 11:16:59;;;;;;;5.93;1.10;;;30.00;36.40;;;;;;6170245;28;20073;-83
2022/06/14 11:20:20;;;;;;;9.95;1.95;;;30.70;35.50;;;;;;6158002;28;20057;-84
2022/06/14 11:23:28;;;;;;;5.03;1.58;;;31.10;34.70;;;;;;6158860;28;20067;-83
2022/06/14 11:26:36;;;;;;;7.28;1.73;;;31.10;35.20;;;;;;6157716;28;20080;-83
2022/06/14 11:29:41;;;;;;;;;;;31.10;35.10;;;;;;6173909;28;20047;-82
2022/06/14 11:32:50;;;;;;;8.48;1.55;;;30.90;34.50;;;;;;6180401;28;19922;-82
2022/06/14 11:36:22;;;;;;;5.40;1.60;;;30.70;35.50;;;;;;6180392;28;20054;-82
2022/06/14 11:39:33;;;;;;;5.78;1.40;;;30.80;35.30;;;;;;6175965;28;20068;-82
2022/06/14 11:42:47;;;;;;;4.20;1.30;;;31.30;34.10;;;;;;6181364;28;20053;-82
2022/06/14 11:45:55;;;;;;;6.80;1.23;;;31.20;33.40;;;;;;6180979;28;20043;-82
2022/06/14 11:49:01;;;;;;;6.95;1.00;;;31.40;34.10;;;;;;6181064;28;20053;-82
2022/06/14 11:52:22;;;;;;;5.20;1.42;;;31.40;33.40;;;;;;6180193;28;20480;-84
2022/06/14 11:55:29;;;;;;;4.95;1.23;;;31.60;32.90;;;;;;6180922;28;20051;-84
2022/06/14 11:58:40;;;;;;;3.10;1.38;;;31.50;33.00;;;;;;6181630;28;20054;-82
2022/06/14 12:01:52;;;;;;;8.95;1.30;;;31.20;33.70;;;;;;6181611;28;20107;-82
2022/06/14 12:05:10;;;;;;;7.80;1.23;;;31.50;33.90;;;;;;6181242;28;20043;-83
2022/06/14 12:08:28;;;;;;;3.90;1.42;;;31.90;32.70;;;;;;6172969;28;20069;-83
2022/06/14 12:11:35;;;;;;;4.47;1.23;;;32.20;32.90;;;;;;6186216;28;20050;-84
2022/06/14 12:14:50;;;;;;;;;;;32.20;32.40;;;;;;6182037;28;20134;-84
2022/06/14 12:17:56;;;;;;;4.07;1.17;;;32.20;32.40;;;;;;6201534;28;19944;-82
2022/06/14 12:21:05;;;;;;;3.58;1.30;;;32.00;32.10;;;;;;6208299;28;20057;-82
2022/06/14 12:24:17;;;;;;;2.17;1.05;;;31.90;32.50;;;;;;6209190;28;20049;-83
2022/06/14 12:27:19;;;;;;;4.28;1.17;;;32.00;32.60;;;;;;6207293;28;20067;-82
2022/06/14 12:30:21;;;;;;;3.67;1.10;;;32.10;31.60;;;;;;6207748;28;20042;-83
2022/06/14 12:33:30;;;;;;;3.97;1.70;;;32.10;32.00;;;;;;6209303;28;20053;-83
2022/06/14 12:36:42;;;;;;;5.57;1.00;;;32.00;32.50;;;;;;6209682;28;20105;-84
2022/06/14 12:39:52;;;;;;;4.60;1.65;;;31.70;32.10;;;;;;6204551;28;20057;-85
2022/06/14 12:43:01;;;;;;;5.30;1.23;;;31.80;32.30;;;;;;6207707;28;20062;-84
2022/06/14 12:46:08;;;;;;;5.00;1.50;;;31.80;32.30;;;;;;6205450;28;20408;-84
2022/06/14 12:49:19;;;;;;;3.80;1.08;;;32.10;30.90;;;;;;6200936;28;20133;-85
2022/06/14 12:52:27;;;;;;;4.95;1.38;;;32.30;31.40;;;;;;6203897;28;20072;-85
2022/06/14 12:55:37;;;;;;;3.10;1.17;;;32.30;30.90;;;;;;6203863;28;20058;-82
2022/06/14 12:58:50;;;;;;;3.92;1.40;;;31.90;31.00;;;;;;6202942;28;20061;-84
2022/06/14 13:01:58;;;;;;;5.88;1.08;;;31.80;30.90;;;;;;6202536;28;20050;-83
2022/06/14 13:05:05;;;;;;;2.97;0.90;;;31.60;31.10;;;;;;6200733;28;20066;-83
2022/06/14 13:08:19;;;;;;;4.68;1.23;;;31.50;31.00;;;;;;6200683;28;20046;-83
2022/06/14 13:11:32;;;;;;;1.35;0.70;;;31.40;31.40;;;;;;6200075;28;20054;-83
2022/06/14 13:14:41;;;;;;;2.45;1.17;;;31.80;31.20;;;;;;6233772;28;20036;-79
2022/06/14 13:18:00;;;;;;;3.70;0.90;;;31.70;30.90;;;;;;6203567;28;20050;-85
2022/06/14 13:21:11;;;;;;;4.57;1.20;;;31.70;31.70;;;;;;6203208;28;20424;-85
2022/06/14 13:24:21;;;;;;;3.72;1.20;;;32.10;30.80;;;;;;6179695;28;20047;-83
2022/06/14 13:27:32;;;;;;;5.53;1.42;;;32.00;30.60;;;;;;6179795;28;20046;-84
2022/06/14 13:30:40;;;;;;;5.45;1.05;;;31.90;30.60;;;;;;6179713;28;20047;-85
2022/06/14 13:33:51;;;;;;;7.13;1.55;;;32.00;31.00;;;;;;6178978;28;20062;-86
2022/06/14 13:37:06;;;;;;;5.45;1.02;;;32.00;30.70;;;;;;6179361;28;20058;-84
2022/06/14 13:40:11;;;;;;;3.20;0.93;;;32.20;31.00;;;;;;6177555;28;20492;-85
2022/06/14 13:43:28;;;;;;;3.75;0.82;;;32.40;31.10;;;;;;6179340;28;20051;-83
2022/06/14 13:46:34;;;;;;;7.70;1.20;;;32.10;30.90;;;;;;6176586;28;20078;-85
2022/06/14 13:49:42;;;;;;;6.10;1.85;;;32.10;31.10;;;;;;6178586;28;20396;-84
2022/06/14 13:52:51;;;;;;;5.00;1.35;;;32.40;30.60;;;;;;6177986;28;20458;-83
2022/06/14 13:56:02;;;;;;;3.95;1.33;;;32.10;30.40;;;;;;6179578;28;20043;-86
2022/06/14 13:59:11;;;;;;;3.55;1.13;;;31.70;30.70;;;;;;6179080;28;20061;-84
2022/06/14 14:02:21;;;;;;;4.78;0.90;;;31.60;30.40;;;;;;6178464;28;20061;-85
2022/06/14 14:05:29;;;;;;;2.72;1.45;;;31.40;30.40;;;;;;6178323;28;20051;-84
2022/06/14 14:08:34;;;;;;;;;;;31.20;30.70;;;;;;6177895;28;20425;-85
2022/06/14 14:12:02;;;;;;;4.00;1.10;;;31.20;31.60;;;;;;6166718;28;19922;-82
2022/06/14 14:15:26;;;;;;;3.35;1.00;;;31.50;32.10;;;;;;6170449;28;20117;-82
2022/06/14 14:18:40;;;;;;;4.22;1.17;;;31.50;31.40;;;;;;6178105;28;20054;-85
2022/06/14 14:21:47;;;;;;;5.57;1.50;;;31.50;32.50;;;;;;6178495;28;20505;-83
2022/06/14 14:24:53;;;;;;;;;;;31.40;32.80;;;;;;6180408;28;20131;-83
2022/06/14 14:28:00;;;;;;;5.43;1.05;;;31.50;31.80;;;;;;6179367;28;19922;-81
2022/06/14 14:31:10;;;;;;;2.45;0.80;;;31.20;30.50;;;;;;6181121;28;20061;-83
2022/06/14 14:34:20;;;;;;;2.15;0.93;;;31.20;31.10;;;;;;6179833;28;20053;-83
2022/06/14 14:37:28;;;;;;;4.43;1.02;;;31.40;30.60;;;;;;6179814;28;20058;-84
2022/06/14 14:40:34;;;;;;;4.53;1.08;;;31.60;30.70;;;;;;6180156;28;20125;-83
2022/06/14 14:43:39;;;;;;;2.85;0.93;;;31.80;31.40;;;;;;6180543;28;20059;-81
2022/06/14 14:46:50;;;;;;;7.47;1.23;;;31.70;32.00;;;;;;6180046;28;20067;-83
2022/06/14 14:49:58;;;;;;;3.83;1.17;;;31.70;32.50;;;;;;6180540;28;20461;-83
2022/06/14 14:53:04;;;;;;;6.45;0.95;;;31.90;31.50;;;;;;6179981;28;20049;-84
2022/06/14 14:56:14;;;;;;;2.33;1.17;;;31.70;31.00;;;;;;6180567;28;20062;-83
2022/06/14 14:59:23;;;;;;;6.40;1.10;;;31.50;31.60;;;;;;6180499;28;20053;-83
2022/06/14 15:06:00;;;;;;;2.42;1.13;;;31.10;30.90;;;;;;6198251;28;20050;-83
2022/06/14 15:09:06;;;;;;;4.07;0.90;;;31.00;31.20;;;;;;6204826;28;20050;-84
2022/06/14 15:12:18;;;;;;;5.93;1.38;;;30.80;31.40;;;;;;6190623;28;20047;-83
2022/06/14 15:15:24;;;;;;;3.00;1.02;;;30.80;31.00;;;;;;6197165;28;20661;-83
2022/06/14 15:21:50;;;;;;;1.65;1.08;;;30.80;31.60;;;;;;6201446;28;20106;-84
2022/06/14 15:24:55;;;;;;;4.50;1.02;;;30.80;31.50;;;;;;6191050;28;20504;-84
2022/06/14 15:28:14;;;;;;;3.88;1.05;;;31.00;31.20;;;;;;6202879;28;20054;-84
2022/06/14 15:31:56;;;;;;;3.53;1.13;;;31.10;31.90;;;;;;6200516;28;20089;-86
2022/06/14 15:35:01;;;;;;;4.55;0.80;;;31.10;30.60;;;;;;6203932;28;20076;-82
2022/06/14 15:38:18;;;;;;;3.35;0.93;;;30.80;30.60;;;;;;6203696;28;20046;-83
2022/06/14 15:41:25;;;;;;;3.67;0.73;;;30.70;31.00;;;;;;6180803;28;20057;-81
2022/06/14 15:44:30;;;;;;;4.72;1.10;;;30.90;30.90;;;;;;6194290;28;20042;-82
2022/06/14 15:47:37;;;;;;;1.67;0.73;;;30.80;31.00;;;;;;6205462;28;20046;-82
2022/06/14 15:50:41;;;;;;;3.00;1.30;;;30.80;31.20;;;;;;6203735;28;20050;-84
2022/06/14 15:53:47;;;;;;;4.82;1.23;;;30.80;31.20;;;;;;6203752;28;20131;-85
2022/06/14 15:56:59;;;;;;;11.75;1.55;;;30.80;30.80;;;;;;6204230;28;20050;-84
2022/06/14 16:00:07;;;;;;;3.70;1.20;;;30.80;31.10;;;;;;6204336;28;20065;-83
2022/06/14 16:03:14;;;;;;;1.88;1.00;;;30.80;31.10;;;;;;6205521;28;20058;-81
2022/06/14 16:06:28;;;;;;;7.07;1.10;;;30.70;31.40;;;;;;6206258;28;20512;-81
2022/06/14 16:09:35;;;;;;;1.70;0.88;;;30.50;31.80;;;;;;6204743;28;20050;-81
2022/06/14 16:12:41;;;;;;;11.02;1.42;;;30.40;32.20;;;;;;6186798;28;20659;-81
2022/06/14 16:15:46;;;;;;;3.08;1.27;;;30.30;32.50;;;;;;6205707;28;20419;-81
2022/06/14 16:18:48;;;;;;;2.47;1.10;;;30.30;32.90;;;;;;6205424;28;20500;-81
2022/06/14 16:21:58;;;;;;;4.30;1.20;;;30.40;32.60;;;;;;6204846;28;20140;-81
2022/06/14 16:25:00;;;;;;;16.52;2.60;;;30.20;32.60;;;;;;6205232;28;20176;-81
2022/06/14 16:28:10;;;;;;;3.72;1.33;;;30.00;33.00;;;;;;6204496;28;20046;-81
2022/06/14 16:31:16;;;;;;;2.90;1.10;;;29.90;33.00;;;;;;6205934;28;20050;-81
2022/06/14 16:34:23;;;;;;;7.93;1.40;;;29.90;33.20;;;;;;6197882;28;20047;-81
2022/06/14 16:37:40;;;;;;;24.67;1.60;;;30.00;33.30;;;;;;6180367;28;20051;-83
2022/06/14 16:40:50;;;;;;;3.15;0.98;;;29.90;33.60;;;;;;6180557;28;20047;-81
2022/06/14 16:44:00;;;;;;;3.95;1.05;;;29.80;33.90;;;;;;6186580;28;20047;-84
2022/06/14 16:47:08;;;;;;;3.20;1.40;;;29.70;34.10;;;;;;6205961;28;20050;-82
2022/06/14 16:50:18;;;;;;;6.55;1.50;;;29.70;34.80;;;;;;6206367;28;20046;-81
2022/06/14 16:53:29;;;;;;;4.53;1.13;;;29.70;34.30;;;;;;6208515;28;20042;-81
2022/06/14 16:56:38;;;;;;;4.10;1.58;;;29.60;34.80;;;;;;6208140;28;20497;-81